Time;durP1;ratioP1;P1;durP2;ratioP2;P2;SDS_P1;SDS_P2;PMS_P1;PMS_P2;Temp;Humidity;BMP_temperature;BMP_pressure;BME280_temperature;BME280_humidity;BME280_pressure;Samples;Min_cycle;Max_cycle;Signal;HPM_P1;HPM_P2
2023/11/06 00:01:46;;;;;;;4.10;1.90;;;;;;;8.13;87.16;94112.19;6127717;23;20504;-81
2023/11/06 00:04:14;;;;;;;8.13;1.60;;;;;;;8.17;86.88;94105.69;6102702;23;20155;-81
2023/11/06 00:06:39;;;;;;;10.83;3.20;;;;;;;8.25;86.87;94115.19;6102841;23;20163;-82
2023/11/06 00:09:04;;;;;;;6.50;1.50;;;;;;;8.14;86.98;94111.22;6103162;23;20175;-82
2023/11/06 00:11:30;;;;;;;4.23;1.20;;;;;;;8.14;86.69;94124.13;6102904;23;20151;-82
2023/11/06 00:13:55;;;;;;;5.23;1.13;;;;;;;8.15;86.56;94125.75;6126826;23;20226;-81
2023/11/06 00:16:20;;;;;;;3.50;1.47;;;;;;;8.20;86.12;94123.44;6102404;23;20211;-82
2023/11/06 00:18:47;;;;;;;5.60;1.33;;;;;;;8.18;86.00;94122.00;6102385;23;20174;-81
2023/11/06 00:21:12;;;;;;;7.27;1.27;;;;;;;8.17;86.23;94128.97;6127253;23;20548;-81
2023/11/06 00:23:38;;;;;;;5.97;2.00;;;;;;;8.24;85.60;94129.91;6127333;23;20155;-82
2023/11/06 00:26:03;;;;;;;5.70;1.50;;;;;;;8.30;85.26;94122.44;6102153;23;20160;-82
2023/11/06 00:28:29;;;;;;;4.77;1.30;;;;;;;8.43;84.71;94133.09;6127085;23;20217;-81
2023/11/06 00:30:55;;;;;;;5.80;2.10;;;;;;;8.22;85.55;94136.25;6102824;23;20245;-81
2023/11/06 00:33:20;;;;;;;6.37;1.50;;;;;;;8.42;84.96;94141.84;6103014;23;20159;-82
2023/11/06 00:35:45;;;;;;;6.50;2.37;;;;;;;8.24;84.81;94145.44;6102313;23;20173;-81
2023/11/06 00:38:11;;;;;;;5.73;1.50;;;;;;;8.56;84.08;94143.69;6102698;23;20191;-81
2023/11/06 00:40:37;;;;;;;9.03;1.93;;;;;;;8.49;84.11;94142.78;6127116;23;20185;-81
2023/11/06 00:43:02;;;;;;;3.57;1.20;;;;;;;8.39;83.53;94143.00;6103909;23;20235;-82
2023/11/06 00:45:27;;;;;;;8.83;1.47;;;;;;;8.36;83.51;94152.84;6103763;23;20191;-81
2023/11/06 00:47:53;;;;;;;7.30;2.00;;;;;;;8.55;83.12;94139.50;6128120;23;20159;-80
2023/11/06 00:50:18;;;;;;;6.67;1.10;;;;;;;8.61;82.77;94146.59;6128108;23;20179;-82
2023/11/06 00:52:43;;;;;;;9.13;2.00;;;;;;;8.56;83.29;94146.28;6127442;23;20156;-81
2023/11/06 00:55:08;;;;;;;4.77;1.50;;;;;;;8.36;83.77;94145.09;6101797;23;20159;-83
2023/11/06 00:57:34;;;;;;;4.63;1.60;;;;;;;8.57;82.92;94149.66;6153211;23;20186;-82
2023/11/06 00:59:59;;;;;;;8.77;1.97;;;;;;;8.40;83.87;94164.50;6102972;23;20197;-82
2023/11/06 01:02:25;;;;;;;5.87;1.20;;;;;;;8.56;83.26;94159.22;6102535;23;20159;-83
2023/11/06 01:04:50;;;;;;;5.73;1.20;;;;;;;8.36;84.01;94158.81;6126583;23;20255;-84
2023/11/06 01:07:15;;;;;;;6.20;1.40;;;;;;;8.58;82.93;94164.25;6103078;23;20187;-81
2023/11/06 01:09:40;;;;;;;7.53;1.40;;;;;;;8.42;83.72;94168.50;6153449;23;20179;-82
2023/11/06 01:12:06;;;;;;;5.47;1.37;;;;;;;8.49;83.19;94176.41;6103466;23;20170;-82
2023/11/06 01:14:32;;;;;;;3.00;1.17;;;;;;;8.41;83.74;94182.41;6102712;23;20159;-82
2023/11/06 01:16:57;;;;;;;3.57;1.57;;;;;;;8.25;84.33;94172.09;6103102;23;20182;-82
2023/11/06 01:19:22;;;;;;;5.60;1.60;;;;;;;8.22;84.79;94172.44;6128920;23;20179;-80
2023/11/06 01:21:48;;;;;;;5.13;1.60;;;;;;;8.26;84.98;94181.47;6104938;23;20159;-82
2023/11/06 01:24:13;;;;;;;4.70;1.97;;;;;;;8.14;85.20;94177.63;6104736;23;20238;-84
2023/11/06 01:26:42;;;;;;;2.60;1.30;;;;;;;8.27;84.92;94182.28;6104112;23;20601;-83
2023/11/06 01:29:09;;;;;;;6.57;2.33;;;;;;;8.12;85.36;94177.78;6129101;23;20643;-83
2023/11/06 01:31:34;;;;;;;4.13;1.40;;;;;;;8.14;85.95;94186.19;6104279;23;20153;-82
2023/11/06 01:33:59;;;;;;;4.00;1.13;;;;;;;8.15;86.75;94192.19;6129233;23;20508;-83
2023/11/06 01:36:25;;;;;;;4.40;1.40;;;;;;;8.26;87.27;94188.41;6128722;23;20186;-82
2023/11/06 01:38:50;;;;;;;4.40;1.43;;;;;;;8.22;88.43;94182.78;6104634;23;20171;-82
2023/11/06 01:41:15;;;;;;;4.60;1.30;;;;;;;8.26;88.29;94186.63;6129127;23;20682;-83
2023/11/06 01:43:41;;;;;;;8.13;1.63;;;;;;;8.25;88.52;94187.63;6128942;23;20191;-84
2023/11/06 01:46:07;;;;;;;6.03;1.30;;;;;;;8.30;87.95;94200.84;6128165;23;20155;-82
2023/11/06 01:48:33;;;;;;;5.03;1.27;;;;;;;8.18;88.31;94200.41;6103924;23;20159;-81
2023/11/06 01:50:58;;;;;;;3.43;1.00;;;;;;;7.97;89.59;94200.13;6104109;23;20513;-80
2023/11/06 01:53:25;;;;;;;8.10;1.60;;;;;;;8.00;89.98;94201.56;6104358;23;20246;-83
2023/11/06 01:55:51;;;;;;;5.53;2.60;;;;;;;7.99;89.52;94198.19;6127861;23;20217;-83
2023/11/06 01:58:18;;;;;;;19.37;2.00;;;;;;;7.83;89.80;94204.19;6104460;23;20171;-82
2023/11/06 02:00:45;;;;;;;3.47;0.93;;;;;;;8.08;88.71;94212.72;6129035;23;20194;-82
2023/11/06 02:03:10;;;;;;;1.77;0.87;;;;;;;7.77;89.39;94214.34;6104116;23;20159;-83
2023/11/06 02:05:36;;;;;;;4.10;0.93;;;;;;;7.80;89.87;94220.03;6103174;23;20166;-82
2023/11/06 02:08:02;;;;;;;3.73;1.00;;;;;;;7.89;88.71;94207.91;6104136;23;20159;-82
2023/11/06 02:10:28;;;;;;;3.93;0.90;;;;;;;7.67;89.84;94215.31;6128335;23;20733;-83
2023/11/06 02:12:53;;;;;;;3.93;1.10;;;;;;;7.81;88.99;94205.31;6128191;23;20634;-82
2023/11/06 02:15:20;;;;;;;3.47;0.60;;;;;;;7.72;89.96;94211.47;6103344;23;20182;-81
2023/11/06 02:17:45;;;;;;;3.57;0.90;;;;;;;7.82;89.55;94223.25;6128192;23;20183;-82
2023/11/06 02:20:11;;;;;;;3.60;1.00;;;;;;;7.92;89.20;94210.94;6128654;23;20179;-82
2023/11/06 02:22:42;;;;;;;2.70;0.60;;;;;;;7.69;90.32;94222.13;6104067;23;20166;-81
2023/11/06 02:25:07;;;;;;;2.63;0.80;;;;;;;7.71;90.05;94209.84;6128027;23;20211;-82
2023/11/06 02:27:33;;;;;;;2.77;0.60;;;;;;;7.94;88.98;94214.16;6128109;23;20667;-81
2023/11/06 02:29:59;;;;;;;2.30;0.63;;;;;;;7.75;89.65;94209.34;6128239;23;20193;-82
2023/11/06 02:32:24;;;;;;;3.80;0.70;;;;;;;7.62;90.24;94219.38;6127926;23;20620;-83
2023/11/06 02:34:49;;;;;;;3.13;0.60;;;;;;;7.56;90.34;94218.25;6103173;23;20502;-83
2023/11/06 02:37:15;;;;;;;2.20;0.83;;;;;;;7.78;89.89;94218.56;6103631;23;20179;-83
2023/11/06 02:39:40;;;;;;;3.60;0.70;;;;;;;7.65;90.40;94209.53;6128353;23;20175;-83
2023/11/06 02:42:06;;;;;;;2.30;0.87;;;;;;;7.81;89.91;94216.47;6128285;23;20158;-82
2023/11/06 02:44:31;;;;;;;3.20;0.77;;;;;;;7.73;89.80;94221.63;6103624;23;20167;-82
2023/11/06 02:46:57;;;;;;;3.30;1.20;;;;;;;7.72;90.17;94219.22;6103965;23;20156;-83
2023/11/06 02:49:25;;;;;;;3.80;0.90;;;;;;;7.80;89.23;94224.38;6127749;23;20214;-82
2023/11/06 02:51:51;;;;;;;3.93;1.20;;;;;;;7.67;89.47;94225.66;6128228;23;20155;-83
2023/11/06 02:54:21;;;;;;;1.13;0.70;;;;;;;7.81;88.74;94236.34;6103644;23;20214;-82
2023/11/06 02:56:48;;;;;;;2.63;0.80;;;;;;;7.76;89.27;94238.59;6129383;23;20210;-82
2023/11/06 02:59:13;;;;;;;3.13;0.93;;;;;;;7.79;89.25;94240.88;6130026;23;20632;-83
2023/11/06 03:01:40;;;;;;;5.90;1.10;;;;;;;7.75;88.66;94242.13;6130459;23;20174;-83
2023/11/06 03:04:05;;;;;;;5.30;1.10;;;;;;;7.73;88.50;94246.66;6105941;23;20166;-82
2023/11/06 03:06:31;;;;;;;4.80;0.90;;;;;;;7.83;88.38;94247.31;6103444;23;20242;-83
2023/11/06 03:08:56;;;;;;;3.60;0.97;;;;;;;7.82;88.22;94256.03;6128803;23;20167;-82
2023/11/06 03:11:22;;;;;;;2.27;0.70;;;;;;;7.88;87.92;94260.56;6133147;23;20156;-83
2023/11/06 03:13:48;;;;;;;4.40;1.00;;;;;;;7.91;87.67;94279.13;6111199;23;20477;-82
2023/11/06 03:16:14;;;;;;;6.10;1.00;;;;;;;7.69;88.63;94274.63;6104008;23;20167;-82
2023/11/06 03:18:40;;;;;;;4.40;0.97;;;;;;;7.95;87.19;94274.44;6103426;23;20159;-83
2023/11/06 03:21:06;;;;;;;3.67;0.80;;;;;;;7.96;87.43;94281.25;6103964;23;20174;-82
2023/11/06 03:23:31;;;;;;;2.13;0.90;;;;;;;7.89;87.78;94286.25;6128142;23;20679;-84
2023/11/06 03:25:56;;;;;;;2.80;0.70;;;;;;;7.98;87.82;94294.00;6105960;23;20209;-84
2023/11/06 03:28:22;;;;;;;2.90;0.80;;;;;;;8.06;88.21;94296.59;6133401;23;20178;-82
2023/11/06 03:30:47;;;;;;;3.77;0.87;;;;;;;8.02;88.55;94296.09;6107281;23;20187;-84
2023/11/06 03:33:12;;;;;;;1.17;0.60;;;;;;;8.14;87.89;94297.38;6106221;23;20167;-82
2023/11/06 03:35:38;;;;;;;3.73;0.73;;;;;;;7.93;88.70;94297.06;6128685;23;20151;-82
2023/11/06 03:38:03;;;;;;;2.07;0.70;;;;;;;7.77;88.82;94294.47;6103714;23;20198;-84
2023/11/06 03:40:28;;;;;;;2.33;0.90;;;;;;;7.84;88.59;94308.38;6106656;23;20236;-82
2023/11/06 03:42:54;;;;;;;1.50;0.50;;;;;;;7.85;88.92;94302.22;6106108;23;20233;-82
2023/11/06 03:45:19;;;;;;;2.63;0.80;;;;;;;7.79;89.15;94310.63;6128414;23;20162;-83
2023/11/06 03:47:45;;;;;;;2.73;0.83;;;;;;;7.76;89.33;94305.78;6104040;23;20159;-82
2023/11/06 03:50:10;;;;;;;5.97;0.97;;;;;;;7.81;89.50;94308.69;6128739;23;20639;-82
2023/11/06 03:52:35;;;;;;;3.20;0.80;;;;;;;7.69;90.21;94317.75;6128498;23;20159;-83
2023/11/06 03:55:00;;;;;;;2.40;0.80;;;;;;;7.83;89.76;94317.91;6128024;23;20151;-82
2023/11/06 03:57:26;;;;;;;3.33;0.80;;;;;;;7.83;90.14;94330.00;6104298;23;20187;-82
2023/11/06 03:59:51;;;;;;;3.53;1.27;;;;;;;7.91;89.72;94336.00;6109910;23;20215;-84
2023/11/06 04:02:17;;;;;;;2.77;0.70;;;;;;;7.84;90.28;94335.00;6133247;23;20155;-83
2023/11/06 04:04:43;;;;;;;2.20;1.00;;;;;;;7.84;90.19;94334.22;6132304;23;20163;-82
2023/11/06 04:07:09;;;;;;;2.53;0.80;;;;;;;7.86;89.92;94340.84;6107748;23;20170;-83
2023/11/06 04:09:34;;;;;;;3.40;0.60;;;;;;;7.99;89.41;94342.94;6104580;23;20178;-82
2023/11/06 04:12:00;;;;;;;2.10;0.90;;;;;;;7.98;88.51;94351.69;6129156;23;20210;-82
2023/11/06 04:14:25;;;;;;;4.50;0.73;;;;;;;8.04;88.32;94340.69;6127776;23;20160;-83
2023/11/06 04:16:50;;;;;;;3.17;0.93;;;;;;;8.11;87.91;94343.44;6103410;23;20639;-82
2023/11/06 04:19:16;;;;;;;1.87;0.70;;;;;;;7.97;88.05;94344.91;6128596;23;20186;-82
2023/11/06 04:21:41;;;;;;;1.13;0.70;;;;;;;7.92;87.79;94344.56;6128457;23;20159;-81
2023/11/06 04:24:06;;;;;;;3.43;0.70;;;;;;;7.93;87.95;94351.34;6103932;23;20473;-84
2023/11/06 04:26:32;;;;;;;1.13;0.60;;;;;;;7.85;87.51;94351.31;6103745;23;20268;-82
2023/11/06 04:28:57;;;;;;;1.73;0.97;;;;;;;7.88;87.23;94356.19;6103911;23;20241;-83
2023/11/06 04:31:22;;;;;;;1.90;0.63;;;;;;;7.69;88.68;94353.91;6074862;23;20199;-82
2023/11/06 04:33:48;;;;;;;2.00;0.60;;;;;;;7.70;88.20;94363.28;6124541;23;20156;-84
2023/11/06 04:36:13;;;;;;;2.80;0.67;;;;;;;7.74;88.01;94356.81;6073996;23;20164;-81
2023/11/06 04:38:38;;;;;;;4.27;0.80;;;;;;;7.73;87.83;94357.78;6051135;23;20168;-82
2023/11/06 04:41:04;;;;;;;3.37;0.90;;;;;;;7.71;87.24;94360.53;6100074;23;20186;-84
2023/11/06 04:43:29;;;;;;;3.97;0.80;;;;;;;7.56;87.92;94362.91;6077119;23;20254;-82
2023/11/06 04:45:54;;;;;;;3.40;0.70;;;;;;;7.70;87.18;94369.25;6076960;23;20163;-82
2023/11/06 04:48:20;;;;;;;3.53;0.80;;;;;;;7.63;87.25;94376.81;6101602;23;20163;-84
2023/11/06 04:50:45;;;;;;;2.47;0.80;;;;;;;7.64;87.08;94372.47;6079325;23;20626;-82
2023/11/06 04:53:11;;;;;;;2.20;0.87;;;;;;;7.56;86.81;94375.03;6105737;23;20492;-83
2023/11/06 04:55:36;;;;;;;2.00;0.90;;;;;;;7.51;86.57;94383.25;6103236;23;20159;-82
2023/11/06 04:58:01;;;;;;;3.70;0.83;;;;;;;7.60;86.09;94389.25;6079919;23;20189;-82
2023/11/06 05:00:27;;;;;;;3.83;1.07;;;;;;;7.63;85.96;94389.75;6102512;23;20258;-82
2023/11/06 05:02:52;;;;;;;2.33;0.83;;;;;;;7.62;86.05;94389.91;6102553;23;20222;-84
2023/11/06 05:05:17;;;;;;;3.37;1.23;;;;;;;7.61;85.50;94386.50;6078672;23;20156;-82
2023/11/06 05:07:42;;;;;;;3.20;0.80;;;;;;;7.65;85.23;94387.00;6077500;23;20180;-83
2023/11/06 05:10:08;;;;;;;4.37;0.87;;;;;;;7.74;84.00;94395.56;6077389;23;20172;-82
2023/11/06 05:12:35;;;;;;;2.63;0.90;;;;;;;7.75;84.23;94392.03;6101416;23;20235;-82
2023/11/06 05:15:01;;;;;;;3.73;1.10;;;;;;;7.66;84.01;94391.19;6100466;23;20170;-82
2023/11/06 05:17:27;;;;;;;3.83;0.73;;;;;;;7.66;84.20;94392.00;6126623;23;20211;-81
2023/11/06 05:19:52;;;;;;;5.20;0.80;;;;;;;7.58;84.58;94401.50;6077317;23;20183;-83
2023/11/06 05:22:18;;;;;;;3.33;1.07;;;;;;;7.52;84.95;94397.78;6100484;23;20159;-81
2023/11/06 05:24:43;;;;;;;2.60;1.00;;;;;;;7.50;84.62;94396.31;6074824;23;20246;-82
2023/11/06 05:27:09;;;;;;;2.53;0.90;;;;;;;7.60;84.39;94404.75;6099422;23;20659;-83
2023/11/06 05:29:34;;;;;;;1.70;0.73;;;;;;;7.67;84.27;94403.94;6106980;23;20665;-79
2023/11/06 05:32:00;;;;;;;4.67;0.60;;;;;;;7.64;84.11;94411.22;6128902;23;20151;-78
2023/11/06 05:34:25;;;;;;;3.80;0.90;;;;;;;7.59;83.80;94409.09;6129222;23;20154;-81
2023/11/06 05:36:51;;;;;;;1.70;0.93;;;;;;;7.55;84.16;94417.31;6129239;23;20179;-80
2023/11/06 05:39:16;;;;;;;3.90;1.10;;;;;;;7.55;83.77;94422.50;6104788;23;20182;-80
2023/11/06 05:41:46;;;;;;;3.57;1.20;;;;;;;7.64;83.07;94417.19;6104545;23;20264;-79
2023/11/06 05:44:13;;;;;;;6.00;1.20;;;;;;;7.54;83.58;94431.22;6129079;23;20239;-80
2023/11/06 05:46:38;;;;;;;4.63;1.03;;;;;;;7.51;83.73;94432.34;6129730;23;20234;-77
2023/11/06 05:49:04;;;;;;;1.47;0.60;;;;;;;7.60;83.60;94443.53;6128700;23;20610;-82
2023/11/06 05:51:29;;;;;;;4.20;0.90;;;;;;;7.58;84.10;94448.00;6128559;23;20170;-79
2023/11/06 05:53:54;;;;;;;3.47;1.17;;;;;;;7.54;84.16;94452.69;6128804;23;20659;-79
2023/11/06 05:56:21;;;;;;;2.80;0.90;;;;;;;7.50;84.32;94456.53;6103481;23;20160;-79
2023/11/06 05:58:47;;;;;;;4.60;0.93;;;;;;;7.45;84.29;94456.19;6129298;23;20156;-79
2023/11/06 06:01:12;;;;;;;2.57;1.20;;;;;;;7.57;83.30;94452.38;6152961;23;20477;-79
2023/11/06 06:03:37;;;;;;;9.43;6.83;;;;;;;7.56;83.55;94460.28;6103423;23;20241;-79
2023/11/06 06:06:04;;;;;;;9.43;6.47;;;;;;;7.64;82.89;94461.13;6103889;23;20170;-77
2023/11/06 06:08:29;;;;;;;6.30;2.47;;;;;;;7.56;83.55;94468.84;6155225;23;20152;-80
2023/11/06 06:10:54;;;;;;;5.73;4.10;;;;;;;7.58;83.50;94473.84;6104061;23;20262;-79
2023/11/06 06:13:20;;;;;;;4.97;2.40;;;;;;;7.46;83.58;94470.72;6104319;23;20151;-79
2023/11/06 06:15:45;;;;;;;3.07;1.10;;;;;;;7.47;82.80;94476.72;6127803;23;20580;-79
2023/11/06 06:18:10;;;;;;;2.60;1.17;;;;;;;7.61;82.90;94474.34;6154284;23;20176;-79
2023/11/06 06:20:36;;;;;;;4.67;1.10;;;;;;;7.58;82.97;94469.47;6128092;23;20176;-80
2023/11/06 06:23:01;;;;;;;2.27;1.00;;;;;;;7.60;82.30;94472.75;6104043;23;20213;-79
2023/11/06 06:25:26;;;;;;;2.67;0.90;;;;;;;7.66;82.10;94479.03;6153589;23;20174;-78
2023/11/06 06:27:52;;;;;;;3.13;1.00;;;;;;;7.64;82.23;94483.56;6104844;23;20151;-79
2023/11/06 06:30:17;;;;;;;4.63;1.27;;;;;;;7.61;82.48;94489.88;6103631;23;20195;-79
2023/11/06 06:32:43;;;;;;;5.17;1.20;;;;;;;7.65;82.09;94491.16;6128135;23;20173;-79
2023/11/06 06:35:09;;;;;;;4.87;1.43;;;;;;;7.63;82.07;94482.75;6103551;23;20170;-79
2023/11/06 06:37:35;;;;;;;6.57;1.00;;;;;;;7.63;82.13;94492.28;6128617;23;20175;-80
2023/11/06 06:40:00;;;;;;;2.73;1.10;;;;;;;7.60;81.89;94490.84;6128017;23;20513;-79
2023/11/06 06:42:26;;;;;;;5.07;1.00;;;;;;;7.63;81.35;94495.69;6103520;23;20242;-79
2023/11/06 06:44:51;;;;;;;3.47;0.87;;;;;;;7.72;81.21;94500.88;6103086;23;20162;-78
2023/11/06 06:47:16;;;;;;;1.77;1.00;;;;;;;7.69;81.11;94498.63;6127640;23;20527;-79
2023/11/06 06:49:42;;;;;;;4.33;0.90;;;;;;;7.67;81.53;94515.06;6103502;23;20737;-81
2023/11/06 06:52:08;;;;;;;2.53;0.80;;;;;;;7.83;80.70;94508.34;6127683;23;20155;-79
2023/11/06 06:54:34;;;;;;;3.80;0.90;;;;;;;7.80;80.88;94513.84;6126893;23;20480;-78
2023/11/06 06:57:00;;;;;;;2.87;0.80;;;;;;;7.71;81.30;94513.00;6103250;23;20210;-79
2023/11/06 06:59:26;;;;;;;3.70;0.80;;;;;;;7.80;81.10;94519.00;6103172;23;20183;-79
2023/11/06 07:01:52;;;;;;;2.07;0.90;;;;;;;7.84;80.69;94520.31;6128476;23;20152;-79
2023/11/06 07:04:19;;;;;;;6.33;3.07;;;;;;;7.88;80.29;94526.78;6127544;23;20210;-80
2023/11/06 07:06:44;;;;;;;4.73;1.47;;;;;;;7.88;81.18;94535.34;6153636;23;20151;-78
2023/11/06 07:09:10;;;;;;;3.80;1.00;;;;;;;8.02;80.27;94533.94;6128707;23;20484;-81
2023/11/06 07:11:35;;;;;;;4.77;0.80;;;;;;;8.01;80.23;94545.25;6128642;23;20194;-80
2023/11/06 07:14:02;;;;;;;2.10;0.87;;;;;;;7.85;80.75;94552.94;6127996;23;20152;-80
2023/11/06 07:16:27;;;;;;;3.27;0.90;;;;;;;8.00;79.73;94546.22;6153483;23;20158;-79
2023/11/06 07:18:53;;;;;;;2.90;1.47;;;;;;;8.15;79.21;94549.84;6128653;23;20151;-79
2023/11/06 07:21:18;;;;;;;2.77;1.00;;;;;;;8.13;79.28;94561.31;6129060;23;20638;-80
2023/11/06 07:23:44;;;;;;;4.87;1.53;;;;;;;8.19;79.74;94556.28;6103259;23;20639;-79
2023/11/06 07:26:09;;;;;;;4.47;1.00;;;;;;;8.35;78.37;94562.53;6102491;23;20452;-79
2023/11/06 07:28:35;;;;;;;1.43;0.70;;;;;;;8.11;78.62;94564.03;6103100;23;20163;-80
2023/11/06 07:31:00;;;;;;;4.47;0.80;;;;;;;8.39;77.78;94566.41;6127379;23;20187;-79
2023/11/06 07:33:25;;;;;;;5.47;0.97;;;;;;;8.44;77.46;94564.16;6102577;23;20170;-79
2023/11/06 07:35:51;;;;;;;2.73;0.80;;;;;;;8.36;77.81;94577.06;6102481;23;20163;-81
2023/11/06 07:38:17;;;;;;;1.10;0.97;;;;;;;8.44;76.56;94574.50;6126692;23;20305;-80
2023/11/06 07:40:42;;;;;;;3.23;0.93;;;;;;;8.45;76.72;94576.13;6127487;23;20710;-78
2023/11/06 07:43:08;;;;;;;2.97;0.80;;;;;;;8.41;76.57;94574.84;6128637;23;20612;-80
2023/11/06 07:45:33;;;;;;;2.00;0.50;;;;;;;8.44;75.80;94569.34;6130443;23;20160;-81
2023/11/06 07:48:02;;;;;;;1.57;0.57;;;;;;;8.65;75.15;94574.06;6119840;23;20215;-80
2023/11/06 07:50:32;;;;;;;1.53;0.70;;;;;;;8.76;75.24;94579.75;6144336;23;20178;-79
2023/11/06 07:52:57;;;;;;;2.63;0.77;;;;;;;8.86;74.67;94578.78;6144114;23;20211;-82
2023/11/06 07:55:23;;;;;;;2.23;0.60;;;;;;;8.72;74.68;94565.50;6113640;23;20162;-80
2023/11/06 07:57:49;;;;;;;2.30;0.90;;;;;;;8.68;75.09;94576.34;6112136;23;20639;-79
2023/11/06 08:00:15;;;;;;;0.73;0.60;;;;;;;8.91;74.74;94582.50;6108227;23;20194;-81
2023/11/06 08:02:41;;;;;;;3.07;0.60;;;;;;;9.11;74.41;94593.38;6131158;23;20155;-76
2023/11/06 08:05:08;;;;;;;2.43;1.03;;;;;;;8.99;74.96;94592.88;6106482;23;20159;-78
2023/11/06 08:07:38;;;;;;;3.13;0.70;;;;;;;9.16;74.52;94595.47;6131518;23;20147;-79
2023/11/06 08:10:05;;;;;;;2.57;0.90;;;;;;;9.20;74.56;94607.94;6107236;23;20175;-78
2023/11/06 08:12:32;;;;;;;2.70;0.70;;;;;;;9.59;72.33;94599.50;6132703;23;20193;-78
2023/11/06 08:14:57;;;;;;;1.80;0.80;;;;;;;9.67;72.81;94604.66;6130032;23;20236;-82
2023/11/06 08:17:23;;;;;;;2.17;0.90;;;;;;;9.79;71.94;94608.50;6136895;23;20179;-80
2023/11/06 08:19:48;;;;;;;2.37;0.80;;;;;;;10.06;70.92;94619.47;6137306;23;20178;-82
2023/11/06 08:22:13;;;;;;;2.97;0.67;;;;;;;10.03;70.02;94609.44;6111801;23;20195;-82
2023/11/06 08:24:40;;;;;;;3.03;0.70;;;;;;;10.26;69.10;94622.53;6134869;23;20647;-80
2023/11/06 08:27:06;;;;;;;1.43;0.60;;;;;;;10.35;69.27;94622.34;6110025;23;20727;-81
2023/11/06 08:29:33;;;;;;;3.97;0.80;;;;;;;10.31;70.63;94636.59;6164629;23;20186;-81
2023/11/06 08:31:59;;;;;;;3.13;0.90;;;;;;;10.33;70.35;94644.22;6138654;23;20146;-80
2023/11/06 08:34:25;;;;;;;2.50;0.97;;;;;;;10.63;69.43;94640.88;6112450;23;20170;-77
2023/11/06 08:36:50;;;;;;;1.83;1.00;;;;;;;10.70;69.62;94635.81;6110157;23;20183;-81
2023/11/06 08:39:17;;;;;;;2.07;0.60;;;;;;;10.90;69.99;94639.59;6136022;23;20175;-81
2023/11/06 08:41:43;;;;;;;1.57;0.50;;;;;;;10.76;69.73;94642.91;6111638;23;20162;-81
2023/11/06 08:44:08;;;;;;;0.90;0.53;;;;;;;10.73;69.91;94643.25;6130171;23;20163;-80
2023/11/06 08:46:34;;;;;;;1.37;0.60;;;;;;;10.70;70.77;94638.41;6105098;23;20151;-81
2023/11/06 08:48:59;;;;;;;2.40;0.70;;;;;;;10.37;71.59;94643.72;6108432;23;20199;-80
2023/11/06 08:51:25;;;;;;;1.13;0.50;;;;;;;10.27;72.34;94647.50;6160389;23;20162;-80
2023/11/06 08:53:50;;;;;;;1.13;0.57;;;;;;;10.11;72.91;94654.31;6159631;23;20159;-80
2023/11/06 08:56:20;;;;;;;2.90;0.50;;;;;;;10.26;72.68;94651.88;6107142;23;20210;-80
2023/11/06 08:58:45;;;;;;;2.03;0.53;;;;;;;10.39;72.57;94646.97;6108625;23;20519;-79
2023/11/06 09:01:11;;;;;;;2.10;0.70;;;;;;;10.29;71.51;94661.94;6133541;23;20159;-81
2023/11/06 09:03:38;;;;;;;2.20;0.50;;;;;;;10.04;71.80;94653.38;6109344;23;20168;-81
2023/11/06 09:06:04;;;;;;;3.13;0.50;;;;;;;9.96;71.95;94655.97;6108590;23;20480;-80
2023/11/06 09:08:30;;;;;;;1.73;0.70;;;;;;;10.12;71.86;94665.50;6107731;23;20155;-79
2023/11/06 09:10:55;;;;;;;2.53;0.70;;;;;;;10.34;71.74;94664.84;6132728;23;20178;-79
2023/11/06 09:13:20;;;;;;;4.17;1.07;;;;;;;10.34;72.03;94667.44;6107550;23;20163;-80
2023/11/06 09:15:47;;;;;;;1.17;0.60;;;;;;;10.34;72.14;94662.25;6131090;23;20229;-78
2023/11/06 09:18:12;;;;;;;2.10;0.60;;;;;;;10.44;72.40;94662.84;6108063;23;20294;-81
2023/11/06 09:20:38;;;;;;;0.77;0.60;;;;;;;10.41;73.16;94668.34;6131419;23;20261;-80
2023/11/06 09:23:06;;;;;;;1.93;0.60;;;;;;;10.25;72.22;94671.03;6130418;23;20246;-80
2023/11/06 09:25:32;;;;;;;1.70;0.50;;;;;;;10.21;71.63;94667.09;6129555;23;20169;-77
2023/11/06 09:27:57;;;;;;;1.20;0.60;;;;;;;10.62;70.69;94677.38;6128793;23;20191;-80
2023/11/06 09:30:22;;;;;;;1.27;0.57;;;;;;;10.47;70.09;94669.47;6104586;23;20191;-80
2023/11/06 09:32:48;;;;;;;2.27;0.50;;;;;;;10.66;70.39;94676.06;6154788;23;20151;-78
2023/11/06 09:35:13;;;;;;;0.83;0.57;;;;;;;10.77;71.06;94681.66;6128329;23;20178;-80
2023/11/06 09:37:39;;;;;;;0.60;0.40;;;;;;;10.68;71.01;94687.06;6104073;23;20527;-80
2023/11/06 09:40:05;;;;;;;0.50;0.40;;;;;;;10.70;70.81;94685.16;6129102;23;20178;-79
2023/11/06 09:42:30;;;;;;;0.87;0.40;;;;;;;10.80;70.95;94679.75;6106474;23;20167;-81
2023/11/06 09:44:56;;;;;;;2.10;0.50;;;;;;;10.83;69.04;94684.59;6130506;23;20148;-81
2023/11/06 09:47:21;;;;;;;1.23;0.53;;;;;;;10.68;69.12;94674.91;6131961;23;20151;-80
2023/11/06 09:50:04;;;;;;;1.60;0.47;;;;;;;10.83;68.55;94680.19;6132029;23;20168;-80
2023/11/06 09:52:32;;;;;;;1.53;0.40;;;;;;;10.69;69.10;94691.28;6131081;23;20218;-82
2023/11/06 09:54:58;;;;;;;1.13;0.40;;;;;;;11.04;68.08;94687.38;6130923;23;20246;-80
2023/11/06 09:57:24;;;;;;;0.90;0.50;;;;;;;11.26;67.25;94696.19;6131619;23;20646;-82
2023/11/06 09:59:49;;;;;;;1.87;0.50;;;;;;;11.40;68.03;94697.25;6106958;23;20187;-79
2023/11/06 10:02:15;;;;;;;2.00;0.60;;;;;;;11.58;67.37;94698.59;6107562;23;20267;-76
2023/11/06 10:04:40;;;;;;;2.33;0.40;;;;;;;11.84;67.09;94706.03;6131827;23;20174;-80
2023/11/06 10:07:05;;;;;;;1.17;0.50;;;;;;;11.83;66.53;94707.00;6132373;23;20162;-80
2023/11/06 10:09:31;;;;;;;1.67;0.43;;;;;;;11.93;65.37;94705.94;6130168;23;20179;-79
2023/11/06 10:12:17;;;;;;;2.90;0.60;;;;;;;12.07;64.01;94695.56;6129458;23;20155;-80
2023/11/06 10:14:45;;;;;;;1.57;0.60;;;;;;;12.15;63.85;94695.50;6128818;23;20162;-79
2023/11/06 10:17:10;;;;;;;2.40;0.70;;;;;;;11.70;62.20;94693.75;6130385;23;20193;-78
2023/11/06 10:19:36;;;;;;;0.93;0.50;;;;;;;12.03;62.15;94702.13;6130996;23;20208;-79
2023/11/06 10:22:11;;;;;;;2.27;0.50;;;;;;;12.17;62.02;94696.13;6130643;23;20151;-79
2023/11/06 10:24:49;;;;;;;1.80;0.80;;;;;;;12.51;62.25;94702.63;6130988;23;20151;-78
2023/11/06 10:27:22;;;;;;;3.37;0.30;;;;;;;12.35;61.68;94700.19;6131064;23;20674;-77
2023/11/06 10:30:02;;;;;;;1.37;0.30;;;;;;;12.61;61.35;94697.94;6106120;23;20194;-78
2023/11/06 10:32:27;;;;;;;2.10;0.50;;;;;;;12.40;60.65;94690.06;6105646;23;20143;-80
2023/11/06 10:34:52;;;;;;;0.93;0.40;;;;;;;12.31;61.34;94686.72;6131751;23;20155;-80
2023/11/06 10:37:18;;;;;;;2.47;0.50;;;;;;;12.27;61.97;94693.25;6129990;23;20538;-79
2023/11/06 10:39:54;;;;;;;1.57;0.70;;;;;;;11.92;61.53;94681.72;6131444;23;20179;-79
2023/11/06 10:42:23;;;;;;;2.00;0.60;;;;;;;12.41;61.70;94686.47;6130745;23;20162;-79
2023/11/06 10:44:57;;;;;;;1.80;0.50;;;;;;;11.84;61.90;94694.84;6105357;23;20159;-78
2023/11/06 10:47:27;;;;;;;4.20;0.83;;;;;;;12.01;62.37;94685.88;6109565;23;20192;-80
2023/11/06 10:50:01;;;;;;;1.13;0.50;;;;;;;11.82;61.98;94691.56;6109131;23;20183;-79
2023/11/06 10:52:28;;;;;;;1.23;0.40;;;;;;;12.11;62.16;94694.25;6133250;23;20143;-80
2023/11/06 10:54:56;;;;;;;1.10;0.47;;;;;;;12.50;61.55;94689.78;6129800;23;20161;-79
2023/11/06 10:57:22;;;;;;;1.37;0.60;;;;;;;12.12;62.66;94690.66;6131865;23;20202;-78
2023/11/06 10:59:49;;;;;;;1.07;0.50;;;;;;;12.16;62.09;94691.09;6132319;23;20172;-78
2023/11/06 11:02:45;;;;;;;1.53;0.60;;;;;;;12.31;61.80;94688.53;6105324;23;20163;-77
2023/11/06 11:05:12;;;;;;;1.43;0.60;;;;;;;11.99;62.18;94698.25;6130072;23;20148;-79
2023/11/06 11:07:39;;;;;;;1.37;0.80;;;;;;;12.19;62.25;94688.97;6129189;23;20147;-78
2023/11/06 11:10:08;;;;;;;2.47;0.60;;;;;;;11.96;62.98;94688.22;6130085;23;20182;-79
2023/11/06 11:12:34;;;;;;;1.70;0.50;;;;;;;11.95;63.39;94691.81;6129768;23;20213;-79
2023/11/06 11:15:00;;;;;;;0.60;0.50;;;;;;;12.13;63.22;94691.47;6129623;23;20526;-78
2023/11/06 11:17:25;;;;;;;1.70;0.60;;;;;;;12.00;63.32;94693.84;6105327;23;20183;-78
2023/11/06 11:19:56;;;;;;;1.30;0.50;;;;;;;12.00;63.76;94686.06;6129907;23;20171;-79
2023/11/06 11:22:24;;;;;;;1.53;0.40;;;;;;;11.70;64.46;94696.38;6129894;23;20155;-77
2023/11/06 11:24:50;;;;;;;1.13;0.40;;;;;;;11.55;64.76;94688.50;6128485;23;20182;-79
2023/11/06 11:27:21;;;;;;;2.73;0.60;;;;;;;11.33;65.24;94686.72;6103997;23;20155;-79
2023/11/06 11:29:58;;;;;;;1.63;0.60;;;;;;;11.19;67.51;94690.06;6131153;23;20726;-78
2023/11/06 11:32:30;;;;;;;1.10;0.53;;;;;;;11.44;68.23;94690.72;6167506;23;20155;-77
2023/11/06 11:34:57;;;;;;;0.97;0.70;;;;;;;11.21;71.12;94688.09;6157192;23;20155;-77